createdAt,value
2022-08-26T00:02:07.740Z,101675.63
2022-08-26T00:04:36.393Z,101679.13
2022-08-26T00:07:06.244Z,101682.81
2022-08-26T00:09:39.074Z,101682.00
2022-08-26T00:12:12.428Z,101682.00
2022-08-26T00:14:41.989Z,101683.00
2022-08-26T00:17:10.700Z,101678.09
2022-08-26T00:19:38.934Z,101672.53
2022-08-26T00:22:08.691Z,101673.56
2022-08-26T00:24:36.814Z,101669.25
2022-08-26T00:27:06.426Z,101675.41
2022-08-26T00:29:37.672Z,101678.09
2022-08-26T00:32:06.773Z,101679.94
2022-08-26T00:34:36.857Z,101673.75
2022-08-26T00:37:09.006Z,101679.09
2022-08-26T00:39:40.082Z,101679.28
2022-08-26T00:42:08.512Z,101676.19
2022-08-26T00:44:36.668Z,101671.50
2022-08-26T00:47:09.643Z,101667.19
2022-08-26T00:49:40.338Z,101664.69
2022-08-26T00:52:13.317Z,101661.19
2022-08-26T00:54:50.893Z,101656.03
2022-08-26T00:57:21.236Z,101657.69
2022-08-26T00:59:54.453Z,101658.09
2022-08-26T01:02:22.755Z,101656.63
2022-08-26T01:04:54.405Z,101648.22
2022-08-26T01:07:25.814Z,101648.56
2022-08-26T01:09:55.835Z,101652.66
2022-08-26T01:12:26.409Z,101653.66
2022-08-26T01:14:54.992Z,101654.25
2022-08-26T01:17:24.148Z,101655.44
2022-08-26T01:19:57.369Z,101653.38
2022-08-26T01:22:31.216Z,101651.72
2022-08-26T01:25:04.066Z,101636.75
2022-08-26T01:27:35.548Z,101645.34
2022-08-26T01:30:04.293Z,101645.13
2022-08-26T01:32:34.463Z,101648.38
2022-08-26T01:35:03.373Z,101655.72
2022-08-26T01:37:38.978Z,101654.47
2022-08-26T01:40:17.884Z,101661.03
2022-08-26T01:42:46.909Z,101656.91
2022-08-26T01:45:19.700Z,101660.59
2022-08-26T01:47:50.021Z,101665.09
2022-08-26T01:50:30.636Z,101666.94
2022-08-26T01:53:07.136Z,101671.25
2022-08-26T01:55:38.897Z,101672.91
2022-08-26T01:58:21.101Z,101675.56
2022-08-26T02:00:49.605Z,101676.84
2022-08-26T02:03:22.445Z,101681.97
2022-08-26T02:05:54.973Z,101682.03
2022-08-26T02:08:27.655Z,101684.28
2022-08-26T02:10:57.448Z,101690.47
2022-08-26T02:13:30.127Z,101691.09
2022-08-26T02:15:59.164Z,101700.94
2022-08-26T02:18:29.448Z,101699.28
2022-08-26T02:20:58.209Z,101694.56
2022-08-26T02:23:26.880Z,101693.56
2022-08-26T02:26:03.771Z,101697.47
2022-08-26T02:28:40.056Z,101697.09
2022-08-26T02:31:08.961Z,101698.13
2022-08-26T02:33:38.277Z,101707.78
2022-08-26T02:36:12.156Z,101716.16
2022-08-26T02:38:43.041Z,101721.25
2022-08-26T02:41:12.975Z,101717.72
2022-08-26T02:43:42.255Z,101719.28
2022-08-26T02:46:10.904Z,101717.63
2022-08-26T02:48:39.233Z,101719.28
2022-08-26T02:51:08.037Z,101714.72
2022-08-26T02:53:36.526Z,101718.78
2022-08-26T02:56:05.649Z,101709.75
2022-08-26T02:58:35.554Z,101707.66
2022-08-26T03:01:04.867Z,101701.53
2022-08-26T03:03:33.823Z,101698.66
2022-08-26T03:06:02.355Z,101691.09
2022-08-26T03:08:30.532Z,101683.09
2022-08-26T03:10:59.302Z,101679.59
2022-08-26T03:13:30.356Z,101674.06
2022-08-26T03:16:02.004Z,101672.06
2022-08-26T03:18:30.686Z,101675.72
2022-08-26T03:20:58.894Z,101665.44
2022-08-26T03:23:27.065Z,101669.16
2022-08-26T03:25:56.860Z,101666.66
2022-08-26T03:28:27.149Z,101664.19
2022-08-26T03:30:54.827Z,101665.22
2022-08-26T03:33:24.884Z,101657.00
2022-08-26T03:35:53.981Z,101663.28
2022-08-26T03:38:25.157Z,101656.31
2022-08-26T03:40:53.406Z,101651.81
2022-08-26T03:43:22.464Z,101653.47
2022-08-26T03:45:51.323Z,101648.97
2022-08-26T03:48:20.770Z,101644.63
2022-08-26T03:50:50.551Z,101649.56
2022-08-26T03:53:20.491Z,101650.13
2022-08-26T03:55:48.897Z,101647.63
2022-08-26T03:58:20.650Z,101646.81
2022-08-26T04:00:49.466Z,101649.09
2022-08-26T04:03:37.486Z,101649.03
2022-08-26T04:06:07.640Z,101663.22
2022-08-26T04:08:35.861Z,101655.94
2022-08-26T04:11:04.002Z,101664.34
2022-08-26T04:13:32.587Z,101663.06
2022-08-26T04:16:00.889Z,101648.28
2022-08-26T04:18:33.195Z,101658.75
2022-08-26T04:21:08.026Z,101648.28
2022-08-26T04:23:47.282Z,101649.16
2022-08-26T04:26:16.401Z,101652.78
2022-08-26T04:28:44.942Z,101644.59
2022-08-26T04:31:14.864Z,101655.81
2022-08-26T04:33:44.862Z,101655.28
2022-08-26T04:36:16.252Z,101665.28
2022-08-26T04:38:45.853Z,101658.97
2022-08-26T04:41:15.002Z,101656.22
2022-08-26T04:43:45.609Z,101659.06
2022-08-26T04:46:17.580Z,101664.59
2022-08-26T04:48:47.990Z,101672.06
2022-08-26T04:51:17.835Z,101669.13
2022-08-26T04:53:46.868Z,101684.69
2022-08-26T04:56:15.691Z,101680.19
2022-08-26T04:58:43.860Z,101678.53
2022-08-26T05:01:12.098Z,101683.03
2022-08-26T05:03:40.937Z,101686.09
2022-08-26T05:06:09.966Z,101687.91
2022-08-26T05:08:39.601Z,101686.47
2022-08-26T05:11:09.640Z,101682.97
2022-08-26T05:13:39.191Z,101690.16
2022-08-26T05:16:11.557Z,101683.59
2022-08-26T05:18:41.154Z,101694.44
2022-08-26T05:21:18.347Z,101684.16
2022-08-26T05:23:48.297Z,101689.31
2022-08-26T05:26:17.687Z,101690.31
2022-08-26T05:28:51.667Z,101699.78
2022-08-26T05:31:25.338Z,101688.50
2022-08-26T05:33:53.851Z,101693.81
2022-08-26T05:36:23.893Z,101690.50
2022-08-26T05:38:57.869Z,101698.28
2022-08-26T05:41:34.565Z,101695.06
2022-08-26T05:44:07.061Z,101697.38
2022-08-26T05:46:37.032Z,101702.91
2022-08-26T05:49:12.849Z,101699.03
2022-08-26T05:51:42.152Z,101701.06
2022-08-26T05:54:11.832Z,101708.66
2022-08-26T05:56:40.346Z,101704.75
2022-08-26T05:59:15.438Z,101707.22
2022-08-26T06:01:44.896Z,101700.03
2022-08-26T06:04:13.854Z,101705.38
2022-08-26T06:06:42.871Z,101699.22
2022-08-26T06:09:14.654Z,101696.63
2022-08-26T06:11:45.794Z,101698.97
2022-08-26T06:14:13.869Z,101701.84
2022-08-26T06:16:45.193Z,101705.34
2022-08-26T06:19:15.544Z,101705.72
2022-08-26T06:21:47.809Z,101705.34
2022-08-26T06:24:41.350Z,101702.09
2022-08-26T06:27:13.786Z,101706.00
2022-08-26T06:29:42.728Z,101705.44
2022-08-26T06:32:10.855Z,101707.63
2022-08-26T06:34:39.098Z,101713.41
2022-08-26T06:37:07.316Z,101715.41
2022-08-26T06:39:37.640Z,101718.09
2022-08-26T06:42:09.301Z,101721.41
2022-08-26T06:44:41.133Z,101718.53
2022-08-26T06:47:09.551Z,101740.16
2022-08-26T06:49:38.395Z,101737.13
2022-08-26T06:52:08.105Z,101737.28
2022-08-26T06:54:43.125Z,101742.25
2022-08-26T06:57:14.251Z,101731.19
2022-08-26T06:59:44.855Z,101735.25
2022-08-26T07:02:13.591Z,101730.19
2022-08-26T07:04:42.383Z,101731.56
2022-08-26T07:07:14.333Z,101743.84
2022-08-26T07:09:43.817Z,101743.84
2022-08-26T07:12:12.063Z,101738.72
2022-08-26T07:14:41.489Z,101735.97
2022-08-26T07:17:15.770Z,101747.78
2022-08-26T07:19:44.718Z,101750.59
2022-08-26T07:22:14.458Z,101755.47
2022-08-26T07:24:44.098Z,101752.09
2022-08-26T07:27:15.112Z,101757.84
2022-08-26T07:29:44.973Z,101761.34
2022-08-26T07:32:15.022Z,101770.88
2022-08-26T07:34:44.055Z,101766.19
2022-08-26T07:37:12.349Z,101765.81
2022-08-26T07:39:41.789Z,101767.94
2022-08-26T07:42:14.469Z,101767.72
2022-08-26T07:44:43.542Z,101763.47
2022-08-26T07:47:25.126Z,101771.28
2022-08-26T07:49:55.228Z,101769.28
2022-08-26T07:52:26.733Z,101772.56
2022-08-26T07:54:56.162Z,101768.06
2022-08-26T07:57:26.408Z,101778.34
2022-08-26T07:59:55.264Z,101780.19
2022-08-26T08:02:24.882Z,101781.47
2022-08-26T08:04:54.697Z,101785.22
2022-08-26T08:07:25.763Z,101780.34
2022-08-26T08:10:11.476Z,101781.72
2022-08-26T08:12:41.712Z,101781.63
2022-08-26T08:15:11.665Z,101787.97
2022-08-26T08:17:39.859Z,101788.69
2022-08-26T08:20:09.424Z,101781.13
2022-08-26T08:22:37.616Z,101780.69
2022-08-26T08:25:08.158Z,101776.53
2022-08-26T08:27:41.875Z,101777.16
2022-08-26T08:30:13.899Z,101770.41
2022-08-26T08:32:43.641Z,101782.97
2022-08-26T08:35:14.050Z,101775.53
2022-08-26T08:37:43.712Z,101781.88
2022-08-26T08:40:18.472Z,101780.03
2022-08-26T08:42:55.655Z,101781.50
2022-08-26T08:45:36.294Z,101784.34
2022-08-26T08:48:14.825Z,101781.94
2022-08-26T08:50:45.931Z,101780.13
2022-08-26T08:53:18.682Z,101784.59
2022-08-26T08:56:00.485Z,101779.94
2022-08-26T08:58:43.789Z,101780.56
2022-08-26T09:01:25.143Z,101775.88
2022-08-26T09:04:17.308Z,101785.88
2022-08-26T09:06:48.683Z,101776.69
2022-08-26T09:09:24.158Z,101776.25
2022-08-26T09:11:53.081Z,101780.94
2022-08-26T09:14:23.092Z,101786.28
2022-08-26T09:17:01.274Z,101784.31
2022-08-26T09:19:40.210Z,101784.25
2022-08-26T09:22:09.615Z,101791.47
2022-08-26T09:24:41.730Z,101788.81
2022-08-26T09:27:37.841Z,101791.81
2022-08-26T09:30:11.541Z,101792.56
2022-08-26T09:32:40.574Z,101796.09
2022-08-26T09:35:24.545Z,101798.66
2022-08-26T09:37:53.127Z,101807.38
2022-08-26T09:40:27.604Z,101806.22
2022-08-26T09:43:15.966Z,101808.47
2022-08-26T09:45:59.249Z,101809.88
2022-08-26T09:48:31.153Z,101812.28
2022-08-26T09:51:00.620Z,101803.69
2022-08-26T09:53:31.113Z,101812.34
2022-08-26T09:56:17.048Z,101808.63
2022-08-26T09:58:47.352Z,101809.34
2022-08-26T10:01:30.119Z,101800.16
2022-08-26T10:04:07.817Z,101801.38
2022-08-26T10:06:40.325Z,101799.97
2022-08-26T10:09:14.089Z,101806.16
2022-08-26T10:11:47.722Z,101816.06
2022-08-26T10:14:20.515Z,101810.69
2022-08-26T10:16:56.523Z,101821.16
2022-08-26T10:19:41.319Z,101820.16
2022-08-26T10:22:21.903Z,101832.44
2022-08-26T10:24:55.270Z,101831.81
2022-08-26T10:27:34.260Z,101839.59
2022-08-26T10:30:08.799Z,101841.00
2022-08-26T10:32:42.735Z,101836.19
2022-08-26T10:35:14.793Z,101844.81
2022-08-26T10:37:47.068Z,101847.28
2022-08-26T10:40:21.937Z,101853.06
2022-08-26T10:42:55.689Z,101851.66
2022-08-26T10:45:27.358Z,101845.28
2022-08-26T10:48:04.121Z,101840.81
2022-08-26T10:50:34.766Z,101848.44
2022-08-26T10:53:12.720Z,101847.44
2022-08-26T10:55:49.645Z,101842.22
2022-08-26T10:58:44.655Z,101842.59
2022-08-26T11:01:36.407Z,101845.56
2022-08-26T11:04:22.419Z,101857.31
2022-08-26T11:06:52.306Z,101858.53
2022-08-26T11:09:45.575Z,101867.56
2022-08-26T11:12:49.162Z,101878.88
2022-08-26T11:15:50.966Z,101872.88
2022-08-26T11:18:38.299Z,101870.59
2022-08-26T11:21:47.855Z,101864.44
2022-08-26T11:24:46.187Z,101859.84
2022-08-26T11:27:47.553Z,101860.50
2022-08-26T11:30:57.795Z,101861.50
2022-08-26T11:34:11.027Z,101868.09
2022-08-26T11:36:56.161Z,101870.97
2022-08-26T11:39:29.999Z,101864.41
2022-08-26T11:42:01.461Z,101863.16
2022-08-26T11:44:39.252Z,101863.38
2022-08-26T11:47:11.526Z,101864.38
2022-08-26T11:49:41.726Z,101863.97
2022-08-26T11:52:14.204Z,101868.09
2022-08-26T11:54:42.446Z,101861.53
2022-08-26T11:57:14.740Z,101867.09
2022-08-26T11:59:43.584Z,101869.34
2022-08-26T12:02:19.286Z,101869.19
2022-08-26T12:04:51.946Z,101874.56
2022-08-26T12:07:25.503Z,101870.31
2022-08-26T12:09:58.178Z,101863.50
2022-08-26T12:12:35.017Z,101868.25
2022-08-26T12:15:11.377Z,101871.13
2022-08-26T12:17:40.883Z,101876.06
2022-08-26T12:20:19.620Z,101878.31
2022-08-26T12:22:49.683Z,101880.97
2022-08-26T12:25:24.135Z,101881.81
2022-08-26T12:27:54.072Z,101886.72
2022-08-26T12:30:24.705Z,101886.34
2022-08-26T12:33:21.890Z,101886.72
2022-08-26T12:35:56.626Z,101892.09
2022-08-26T12:38:28.276Z,101889.41
2022-08-26T12:40:57.058Z,101885.31
2022-08-26T12:43:40.687Z,101884.09
2022-08-26T12:46:12.087Z,101878.94
2022-08-26T12:48:44.846Z,101887.38
2022-08-26T12:51:24.778Z,101890.22
2022-08-26T12:53:55.138Z,101895.38
2022-08-26T12:56:30.655Z,101894.28
2022-08-26T12:59:04.676Z,101895.75
2022-08-26T13:01:39.179Z,101902.38
2022-08-26T13:04:07.828Z,101896.63
2022-08-26T13:06:36.129Z,101899.13
2022-08-26T13:09:32.396Z,101895.00
2022-08-26T13:12:02.230Z,101894.44
2022-08-26T13:14:30.568Z,101886.41
2022-08-26T13:16:58.817Z,101896.47
2022-08-26T13:19:27.326Z,101892.94
2022-08-26T13:21:57.718Z,101903.81
2022-08-26T13:24:35.449Z,101904.81
2022-08-26T13:27:04.837Z,101908.94
2022-08-26T13:29:33.202Z,101910.59
2022-08-26T13:32:02.174Z,101907.34
2022-08-26T13:34:31.461Z,101909.41
2022-08-26T13:37:00.243Z,101898.34
2022-08-26T13:39:30.460Z,101893.81
2022-08-26T13:41:58.636Z,101900.59
2022-08-26T13:44:27.182Z,101894.59
2022-08-26T13:46:55.415Z,101898.09
2022-08-26T13:49:23.985Z,101901.63
2022-08-26T13:51:52.209Z,101901.66
2022-08-26T13:54:20.340Z,101897.94
2022-08-26T13:56:49.864Z,101895.06
2022-08-26T13:59:18.115Z,101898.16
2022-08-26T14:01:46.936Z,101904.72
2022-08-26T14:04:15.169Z,101900.59
2022-08-26T14:06:43.462Z,101901.56
2022-08-26T14:09:11.650Z,101908.94
2022-08-26T14:11:50.617Z,101909.06
2022-08-26T14:14:25.106Z,101901.97
2022-08-26T14:16:59.278Z,101915.88
2022-08-26T14:19:29.693Z,101915.63
2022-08-26T14:22:00.785Z,101912.72
2022-08-26T14:24:30.056Z,101912.09
2022-08-26T14:26:58.641Z,101912.97
2022-08-26T14:29:28.405Z,101918.31
2022-08-26T14:31:58.742Z,101907.28
2022-08-26T14:34:27.269Z,101912.47
2022-08-26T14:36:55.437Z,101907.97
2022-08-26T14:39:23.741Z,101903.50
2022-08-26T14:41:56.604Z,101905.16
2022-08-26T14:44:30.645Z,101900.63
2022-08-26T14:47:01.923Z,101904.13
2022-08-26T14:49:31.281Z,101906.56
2022-08-26T14:51:59.491Z,101900.63
2022-08-26T14:54:26.925Z,101897.75
2022-08-26T14:56:58.691Z,101896.13
2022-08-26T14:59:31.522Z,101901.47
2022-08-26T15:02:00.562Z,101898.16
2022-08-26T15:04:29.685Z,101890.34
2022-08-26T15:06:59.897Z,101891.59
2022-08-26T15:09:29.326Z,101889.91
2022-08-26T15:11:57.683Z,101894.66
2022-08-26T15:14:28.588Z,101893.19
2022-08-26T15:17:00.541Z,101895.25
2022-08-26T15:19:29.509Z,101892.97
2022-08-26T15:21:57.749Z,101897.72
2022-08-26T15:24:28.856Z,101900.16
2022-08-26T15:26:57.244Z,101892.78
2022-08-26T15:29:25.378Z,101893.41
2022-08-26T15:31:55.284Z,101890.13
2022-08-26T15:34:26.963Z,101886.03
2022-08-26T15:36:55.395Z,101881.72
2022-08-26T15:39:23.607Z,101890.34
2022-08-26T15:41:52.120Z,101886.66
2022-08-26T15:44:20.820Z,101880.50
2022-08-26T15:46:51.233Z,101892.44
2022-08-26T15:49:21.422Z,101889.59
2022-08-26T15:51:51.446Z,101886.72
2022-08-26T15:54:22.863Z,101885.47
2022-08-26T15:56:52.438Z,101880.78
2022-08-26T15:59:22.521Z,101877.47
2022-08-26T16:01:51.202Z,101878.31
2022-08-26T16:04:20.305Z,101871.72
2022-08-26T16:06:52.301Z,101875.41
2022-08-26T16:09:24.203Z,101875.41
2022-08-26T16:11:52.742Z,101863.47
2022-08-26T16:14:21.394Z,101870.28
2022-08-26T16:16:49.958Z,101863.06
2022-08-26T16:19:18.401Z,101865.53
2022-08-26T16:21:47.359Z,101864.94
2022-08-26T16:24:16.942Z,101858.75
2022-08-26T16:26:45.596Z,101869.66
2022-08-26T16:29:15.717Z,101869.84
2022-08-26T16:31:44.012Z,101867.19
2022-08-26T16:34:12.533Z,101877.25
2022-08-26T16:36:41.154Z,101869.44
2022-08-26T16:39:10.863Z,101871.50
2022-08-26T16:41:40.504Z,101864.47
2022-08-26T16:44:11.503Z,101865.13
2022-08-26T16:46:41.285Z,101868.59
2022-08-26T16:49:09.474Z,101866.53
2022-08-26T16:51:38.423Z,101856.66
2022-08-26T16:54:08.248Z,101856.66
2022-08-26T16:56:37.470Z,101864.69
2022-08-26T16:59:10.582Z,101862.63
2022-08-26T17:01:38.985Z,101863.66
2022-08-26T17:04:07.310Z,101865.94
2022-08-26T17:06:35.500Z,101869.00
2022-08-26T17:09:03.687Z,101869.81
2022-08-26T17:11:31.968Z,101870.63
2022-08-26T17:14:00.236Z,101878.25
2022-08-26T17:16:29.970Z,101879.28
2022-08-26T17:18:58.343Z,101874.94
2022-08-26T17:21:27.982Z,101871.84
2022-08-26T17:23:57.367Z,101863.59
2022-08-26T17:26:25.622Z,101878.00
2022-08-26T17:28:53.965Z,101867.53
2022-08-26T17:31:23.426Z,101868.13
2022-08-26T17:33:54.320Z,101879.22
2022-08-26T17:36:28.161Z,101879.66
2022-08-26T17:38:57.806Z,101888.25
2022-08-26T17:41:27.350Z,101888.66
2022-08-26T17:43:55.680Z,101887.22
2022-08-26T17:46:24.850Z,101900.13
2022-08-26T17:48:54.485Z,101916.09
2022-08-26T17:51:23.618Z,101923.66
2022-08-26T17:53:52.952Z,101925.66
2022-08-26T17:56:25.600Z,101922.69
2022-08-26T17:58:55.088Z,101912.19
2022-08-26T18:01:27.310Z,101923.84
2022-08-26T18:04:00.346Z,101921.09
2022-08-26T18:06:31.637Z,101926.38
2022-08-26T18:09:00.974Z,101914.63
2022-08-26T18:11:30.186Z,101917.69
2022-08-26T18:13:59.021Z,101922.03
2022-08-26T18:16:27.587Z,101918.91
2022-08-26T18:18:57.263Z,101921.94
2022-08-26T18:21:27.598Z,101920.41
2022-08-26T18:23:56.056Z,101924.91
2022-08-26T18:26:27.152Z,101924.47
2022-08-26T18:28:55.485Z,101931.41
2022-08-26T18:31:23.923Z,101935.09
2022-08-26T18:33:52.396Z,101930.94
2022-08-26T18:36:25.209Z,101923.16
2022-08-26T18:38:54.201Z,101916.78
2022-08-26T18:41:24.778Z,101920.47
2022-08-26T18:43:54.309Z,101917.19
2022-08-26T18:46:25.238Z,101922.69
2022-08-26T18:48:54.846Z,101919.19
2022-08-26T18:51:26.794Z,101927.22
2022-08-26T18:53:55.165Z,101934.59
2022-08-26T18:56:23.923Z,101927.78
2022-08-26T18:58:52.262Z,101934.13
2022-08-26T19:01:25.441Z,101932.69
2022-08-26T19:03:55.942Z,101939.03
2022-08-26T19:06:27.002Z,101940.88
2022-08-26T19:08:55.656Z,101950.09
2022-08-26T19:11:31.203Z,101953.38
2022-08-26T19:14:01.029Z,101949.69
2022-08-26T19:16:30.469Z,101946.19
2022-08-26T19:19:00.773Z,101950.50
2022-08-26T19:21:32.794Z,101946.84
2022-08-26T19:24:03.052Z,101951.72
2022-08-26T19:26:32.975Z,101951.94
2022-08-26T19:29:01.770Z,101959.94
2022-08-26T19:31:30.019Z,101957.44
2022-08-26T19:33:59.103Z,101958.66
2022-08-26T19:36:29.743Z,101964.16
2022-08-26T19:38:58.373Z,101963.75
2022-08-26T19:41:37.036Z,101960.63
2022-08-26T19:44:08.451Z,101965.28
2022-08-26T19:49:10.387Z,101980.03
2022-08-26T19:51:39.948Z,101988.41
2022-08-26T19:54:08.141Z,101974.41
2022-08-26T19:56:36.670Z,101977.28
2022-08-26T19:59:05.052Z,101977.47
2022-08-26T20:01:33.847Z,101977.00
2022-08-26T20:04:02.957Z,101978.03
2022-08-26T20:06:31.337Z,101974.53
2022-08-26T20:09:01.263Z,101971.41
2022-08-26T20:11:29.929Z,101979.63
2022-08-26T20:13:59.202Z,101971.34
2022-08-26T20:16:27.497Z,101977.41
2022-08-26T20:19:13.269Z,101972.47
2022-08-26T20:21:42.687Z,101965.44
2022-08-26T20:24:14.874Z,101971.72
2022-08-26T20:26:45.192Z,101967.47
2022-08-26T20:29:16.026Z,101967.47
2022-08-26T20:31:44.856Z,101965.84
2022-08-26T20:34:14.483Z,101962.03
2022-08-26T20:36:43.653Z,101967.94
2022-08-26T20:39:14.181Z,101970.03
2022-08-26T20:41:42.408Z,101968.75
2022-08-26T20:44:11.485Z,101971.31
2022-08-26T20:46:39.557Z,101977.19
2022-08-26T20:49:08.318Z,101975.53
2022-08-26T20:51:38.587Z,101977.53
2022-08-26T20:54:08.120Z,101973.97
2022-08-26T20:56:38.161Z,101978.47
2022-08-26T20:59:08.231Z,101981.06
2022-08-26T21:01:42.054Z,101972.22
2022-08-26T21:04:13.943Z,101973.69
2022-08-26T21:06:45.125Z,101969.72
2022-08-26T21:09:20.728Z,101977.25
2022-08-26T21:11:51.305Z,101976.22
2022-08-26T21:14:25.729Z,101975.34
2022-08-26T21:16:54.838Z,101963.09
2022-08-26T21:19:23.615Z,101966.78
2022-08-26T21:21:51.876Z,101964.13
2022-08-26T21:24:20.143Z,101959.63
2022-08-26T21:26:49.124Z,101954.91
2022-08-26T21:29:18.784Z,101958.59
2022-08-26T21:31:47.203Z,101963.00
2022-08-26T21:34:16.012Z,101953.81
2022-08-26T21:36:44.665Z,101957.50
2022-08-26T21:39:12.933Z,101961.16
2022-08-26T21:41:42.632Z,101959.13
2022-08-26T21:44:11.746Z,101962.00
2022-08-26T21:46:41.635Z,101959.97
2022-08-26T21:49:12.532Z,101958.31
2022-08-26T21:51:44.128Z,101958.69
2022-08-26T21:54:13.364Z,101951.34
2022-08-26T21:56:44.711Z,101960.16
2022-08-26T21:59:13.831Z,101957.00
2022-08-26T22:01:43.326Z,101961.53
2022-08-26T22:04:11.878Z,101954.06
2022-08-26T22:06:46.530Z,101960.22
2022-08-26T22:09:16.768Z,101965.53
2022-08-26T22:11:45.870Z,101968.22
2022-08-26T22:14:14.659Z,101972.06
2022-08-26T22:16:50.166Z,101971.25
2022-08-26T22:19:20.047Z,101969.56
2022-08-26T22:21:50.143Z,101960.94
2022-08-26T22:24:18.981Z,101974.25
2022-08-26T22:26:48.248Z,101975.91
2022-08-26T22:29:17.416Z,101975.75
2022-08-26T22:31:47.487Z,101965.09
2022-08-26T22:34:19.545Z,101965.44
2022-08-26T22:36:49.558Z,101966.63
2022-08-26T22:39:22.166Z,101963.97
2022-08-26T22:41:51.207Z,101964.50
2022-08-26T22:44:22.345Z,101964.41
2022-08-26T22:46:54.845Z,101965.75
2022-08-26T22:49:23.316Z,101966.09
2022-08-26T22:51:52.147Z,101966.63
2022-08-26T22:54:20.828Z,101973.78
2022-08-26T22:56:49.073Z,101971.97
2022-08-26T22:59:18.000Z,101982.94
2022-08-26T23:01:47.480Z,101976.81
2022-08-26T23:04:17.065Z,101993.59
2022-08-26T23:06:47.546Z,101991.94
2022-08-26T23:09:18.326Z,101996.25
2022-08-26T23:11:47.566Z,101998.91
2022-08-26T23:14:16.465Z,101997.44
2022-08-26T23:16:44.761Z,101998.44
2022-08-26T23:19:15.364Z,102000.91
2022-08-26T23:21:45.350Z,102001.59
2022-08-26T23:24:14.903Z,101993.41
2022-08-26T23:26:43.585Z,101998.56
2022-08-26T23:29:14.126Z,102001.72
2022-08-26T23:31:43.194Z,102004.38
2022-08-26T23:34:29.389Z,102009.69
2022-08-26T23:37:00.264Z,102000.72
2022-08-26T23:39:29.415Z,102001.91
2022-08-26T23:41:58.280Z,102008.22
2022-08-26T23:44:26.945Z,102005.53
2022-08-26T23:46:55.491Z,102006.72
2022-08-26T23:49:24.346Z,102014.41
2022-08-26T23:52:10.297Z,102012.09
2022-08-26T23:54:40.738Z,102012.28
2022-08-26T23:57:09.785Z,102012.78
2022-08-26T23:59:38.851Z,102015.81
